sensor_id;sensor_type;location;lat;lon;timestamp;temperature;humidity
25937;DHT22;13733;51.178;4.450;2022-12-29T00:01:49;11.00;99.90
25937;DHT22;13733;51.178;4.450;2022-12-29T00:04:15;11.10;99.90
25937;DHT22;13733;51.178;4.450;2022-12-29T00:06:42;11.10;99.90
25937;DHT22;13733;51.178;4.450;2022-12-29T00:09:10;11.10;99.90
25937;DHT22;13733;51.178;4.450;2022-12-29T00:11:35;11.20;99.90
25937;DHT22;13733;51.178;4.450;2022-12-29T00:14:04;11.20;99.90
25937;DHT22;13733;51.178;4.450;2022-12-29T00:16:48;11.30;99.90
25937;DHT22;13733;51.178;4.450;2022-12-29T00:19:15;11.30;99.90
25937;DHT22;13733;51.178;4.450;2022-12-29T00:22:00;11.30;99.90
25937;DHT22;13733;51.178;4.450;2022-12-29T00:24:44;11.30;99.90
25937;DHT22;13733;51.178;4.450;2022-12-29T00:27:19;11.40;99.90
25937;DHT22;13733;51.178;4.450;2022-12-29T00:30:12;11.50;99.90
25937;DHT22;13733;51.178;4.450;2022-12-29T00:32:56;11.60;99.90
25937;DHT22;13733;51.178;4.450;2022-12-29T00:38:41;11.60;99.90
25937;DHT22;13733;51.178;4.450;2022-12-29T00:41:26;11.50;99.90
25937;DHT22;13733;51.178;4.450;2022-12-29T00:44:13;11.60;99.90
25937;DHT22;13733;51.178;4.450;2022-12-29T00:46:40;11.50;99.90
25937;DHT22;13733;51.178;4.450;2022-12-29T00:49:09;11.60;99.90
25937;DHT22;13733;51.178;4.450;2022-12-29T00:51:54;11.70;99.90
25937;DHT22;13733;51.178;4.450;2022-12-29T00:54:21;11.70;99.90
25937;DHT22;13733;51.178;4.450;2022-12-29T00:56:48;11.80;99.90
25937;DHT22;13733;51.178;4.450;2022-12-29T00:59:16;11.80;99.90
25937;DHT22;13733;51.178;4.450;2022-12-29T01:01:42;12.00;99.90
25937;DHT22;13733;51.178;4.450;2022-12-29T01:04:08;11.90;99.90
25937;DHT22;13733;51.178;4.450;2022-12-29T01:06:36;11.90;99.90
25937;DHT22;13733;51.178;4.450;2022-12-29T01:09:03;11.90;99.90
25937;DHT22;13733;51.178;4.450;2022-12-29T01:11:47;11.80;99.90
25937;DHT22;13733;51.178;4.450;2022-12-29T01:14:13;11.90;99.90
25937;DHT22;13733;51.178;4.450;2022-12-29T01:16:39;11.90;99.90
25937;DHT22;13733;51.178;4.450;2022-12-29T01:19:05;11.90;99.90
25937;DHT22;13733;51.178;4.450;2022-12-29T01:21:30;11.80;99.90
25937;DHT22;13733;51.178;4.450;2022-12-29T01:23:56;11.80;99.90
25937;DHT22;13733;51.178;4.450;2022-12-29T01:26:22;11.90;99.90
25937;DHT22;13733;51.178;4.450;2022-12-29T01:28:51;11.90;99.90
25937;DHT22;13733;51.178;4.450;2022-12-29T01:31:17;12.00;99.90
25937;DHT22;13733;51.178;4.450;2022-12-29T01:33:43;12.00;99.90
25937;DHT22;13733;51.178;4.450;2022-12-29T01:36:11;12.10;99.90
25937;DHT22;13733;51.178;4.450;2022-12-29T01:38:38;12.20;99.90
25937;DHT22;13733;51.178;4.450;2022-12-29T01:41:05;12.20;99.90
25937;DHT22;13733;51.178;4.450;2022-12-29T01:43:47;12.10;99.90
25937;DHT22;13733;51.178;4.450;2022-12-29T01:48:59;12.20;99.90
25937;DHT22;13733;51.178;4.450;2022-12-29T01:51:30;12.20;99.90
25937;DHT22;13733;51.178;4.450;2022-12-29T01:53:58;12.00;99.90
25937;DHT22;13733;51.178;4.450;2022-12-29T01:56:26;12.00;99.90
25937;DHT22;13733;51.178;4.450;2022-12-29T01:59:00;11.80;99.90
25937;DHT22;13733;51.178;4.450;2022-12-29T02:01:27;11.80;99.90
25937;DHT22;13733;51.178;4.450;2022-12-29T02:03:53;11.60;99.90
25937;DHT22;13733;51.178;4.450;2022-12-29T02:06:23;11.60;99.90
25937;DHT22;13733;51.178;4.450;2022-12-29T02:08:53;11.60;99.90
25937;DHT22;13733;51.178;4.450;2022-12-29T02:11:23;11.50;99.90
25937;DHT22;13733;51.178;4.450;2022-12-29T02:13:51;11.50;99.90
25937;DHT22;13733;51.178;4.450;2022-12-29T02:22:57;11.40;99.90
25937;DHT22;13733;51.178;4.450;2022-12-29T02:25:38;11.30;99.90
25937;DHT22;13733;51.178;4.450;2022-12-29T02:31:05;11.50;99.90
25937;DHT22;13733;51.178;4.450;2022-12-29T02:36:33;11.50;99.90
25937;DHT22;13733;51.178;4.450;2022-12-29T02:47:10;11.30;99.90
25937;DHT22;13733;51.178;4.450;2022-12-29T02:52:25;11.30;99.90
25937;DHT22;13733;51.178;4.450;2022-12-29T02:54:56;11.30;99.90
25937;DHT22;13733;51.178;4.450;2022-12-29T02:59:52;11.40;99.90
25937;DHT22;13733;51.178;4.450;2022-12-29T03:02:35;11.50;99.90
25937;DHT22;13733;51.178;4.450;2022-12-29T03:05:22;11.50;99.90
25937;DHT22;13733;51.178;4.450;2022-12-29T03:11:03;11.40;99.90
25937;DHT22;13733;51.178;4.450;2022-12-29T03:16:40;11.20;99.90
25937;DHT22;13733;51.178;4.450;2022-12-29T03:19:29;11.10;99.90
25937;DHT22;13733;51.178;4.450;2022-12-29T03:21:58;11.10;99.90
25937;DHT22;13733;51.178;4.450;2022-12-29T03:24:55;11.30;99.90
25937;DHT22;13733;51.178;4.450;2022-12-29T03:27:27;11.50;99.90
25937;DHT22;13733;51.178;4.450;2022-12-29T03:29:57;11.50;99.90
25937;DHT22;13733;51.178;4.450;2022-12-29T03:32:47;11.30;99.90
25937;DHT22;13733;51.178;4.450;2022-12-29T03:35:17;11.40;99.90
25937;DHT22;13733;51.178;4.450;2022-12-29T03:38:07;11.30;99.90
25937;DHT22;13733;51.178;4.450;2022-12-29T03:40:39;11.30;99.90
25937;DHT22;13733;51.178;4.450;2022-12-29T03:43:07;11.40;99.90
25937;DHT22;13733;51.178;4.450;2022-12-29T03:45:34;11.50;99.90
25937;DHT22;13733;51.178;4.450;2022-12-29T03:48:00;11.40;99.90
25937;DHT22;13733;51.178;4.450;2022-12-29T03:50:27;11.30;99.90
25937;DHT22;13733;51.178;4.450;2022-12-29T03:52:52;11.40;99.90
25937;DHT22;13733;51.178;4.450;2022-12-29T03:55:18;11.40;99.90
25937;DHT22;13733;51.178;4.450;2022-12-29T03:57:44;11.50;99.90
25937;DHT22;13733;51.178;4.450;2022-12-29T04:00:15;11.50;99.90
25937;DHT22;13733;51.178;4.450;2022-12-29T04:02:41;11.50;99.90
25937;DHT22;13733;51.178;4.450;2022-12-29T04:05:09;11.40;99.90
25937;DHT22;13733;51.178;4.450;2022-12-29T04:07:35;11.40;99.90
25937;DHT22;13733;51.178;4.450;2022-12-29T04:10:03;11.30;99.90
25937;DHT22;13733;51.178;4.450;2022-12-29T04:12:32;11.10;99.90
25937;DHT22;13733;51.178;4.450;2022-12-29T04:14:57;11.00;99.90
25937;DHT22;13733;51.178;4.450;2022-12-29T04:17:24;11.10;99.90
25937;DHT22;13733;51.178;4.450;2022-12-29T04:19:52;11.10;99.90
25937;DHT22;13733;51.178;4.450;2022-12-29T04:22:38;11.10;99.90
25937;DHT22;13733;51.178;4.450;2022-12-29T04:25:04;10.80;99.90
25937;DHT22;13733;51.178;4.450;2022-12-29T04:27:31;10.80;99.90
25937;DHT22;13733;51.178;4.450;2022-12-29T04:30:19;10.90;99.90
25937;DHT22;13733;51.178;4.450;2022-12-29T04:32:59;11.00;99.90
25937;DHT22;13733;51.178;4.450;2022-12-29T04:35:25;10.90;99.90
25937;DHT22;13733;51.178;4.450;2022-12-29T04:37:50;10.90;99.90
25937;DHT22;13733;51.178;4.450;2022-12-29T04:40:16;11.10;99.90
25937;DHT22;13733;51.178;4.450;2022-12-29T04:42:42;11.10;99.90
25937;DHT22;13733;51.178;4.450;2022-12-29T04:45:08;11.30;99.90
25937;DHT22;13733;51.178;4.450;2022-12-29T04:47:49;11.20;99.90
25937;DHT22;13733;51.178;4.450;2022-12-29T04:50:33;11.20;99.90
25937;DHT22;13733;51.178;4.450;2022-12-29T04:53:07;11.20;99.90
25937;DHT22;13733;51.178;4.450;2022-12-29T04:55:33;11.30;99.90
25937;DHT22;13733;51.178;4.450;2022-12-29T04:58:00;11.20;99.90
25937;DHT22;13733;51.178;4.450;2022-12-29T05:00:28;11.20;99.90
25937;DHT22;13733;51.178;4.450;2022-12-29T05:02:54;11.20;99.90
25937;DHT22;13733;51.178;4.450;2022-12-29T05:05:20;11.40;99.90
25937;DHT22;13733;51.178;4.450;2022-12-29T05:07:49;11.30;99.90
25937;DHT22;13733;51.178;4.450;2022-12-29T05:10:15;11.30;99.90
25937;DHT22;13733;51.178;4.450;2022-12-29T05:12:41;11.30;99.90
25937;DHT22;13733;51.178;4.450;2022-12-29T05:15:08;11.30;99.90
25937;DHT22;13733;51.178;4.450;2022-12-29T05:17:35;11.50;99.90
25937;DHT22;13733;51.178;4.450;2022-12-29T05:20:01;11.40;99.90
25937;DHT22;13733;51.178;4.450;2022-12-29T05:22:28;11.50;99.90
25937;DHT22;13733;51.178;4.450;2022-12-29T05:24:55;11.20;99.90
25937;DHT22;13733;51.178;4.450;2022-12-29T05:27:21;11.20;99.90
25937;DHT22;13733;51.178;4.450;2022-12-29T05:29:54;11.20;99.90
25937;DHT22;13733;51.178;4.450;2022-12-29T05:32:20;11.10;99.90
25937;DHT22;13733;51.178;4.450;2022-12-29T05:34:46;11.20;99.90
25937;DHT22;13733;51.178;4.450;2022-12-29T05:37:12;11.30;99.90
25937;DHT22;13733;51.178;4.450;2022-12-29T05:39:40;11.20;99.90
25937;DHT22;13733;51.178;4.450;2022-12-29T05:42:07;11.10;99.90
25937;DHT22;13733;51.178;4.450;2022-12-29T05:44:53;11.20;99.90
25937;DHT22;13733;51.178;4.450;2022-12-29T05:47:54;11.30;99.90
25937;DHT22;13733;51.178;4.450;2022-12-29T05:50:29;11.10;99.90
25937;DHT22;13733;51.178;4.450;2022-12-29T05:53:08;11.20;99.90
25937;DHT22;13733;51.178;4.450;2022-12-29T05:55:36;11.20;99.90
25937;DHT22;13733;51.178;4.450;2022-12-29T05:58:02;11.10;99.90
25937;DHT22;13733;51.178;4.450;2022-12-29T06:00:28;11.10;99.90
25937;DHT22;13733;51.178;4.450;2022-12-29T06:02:53;11.20;99.90
25937;DHT22;13733;51.178;4.450;2022-12-29T06:05:19;11.10;99.90
25937;DHT22;13733;51.178;4.450;2022-12-29T06:07:45;11.10;99.90
25937;DHT22;13733;51.178;4.450;2022-12-29T06:10:14;11.20;99.90
25937;DHT22;13733;51.178;4.450;2022-12-29T06:12:44;11.20;99.90
25937;DHT22;13733;51.178;4.450;2022-12-29T06:15:10;11.30;99.90
25937;DHT22;13733;51.178;4.450;2022-12-29T06:17:38;11.30;99.90
25937;DHT22;13733;51.178;4.450;2022-12-29T06:20:05;11.30;99.90
25937;DHT22;13733;51.178;4.450;2022-12-29T06:22:31;11.10;99.90
25937;DHT22;13733;51.178;4.450;2022-12-29T06:24:56;11.10;99.90
25937;DHT22;13733;51.178;4.450;2022-12-29T06:27:22;11.10;99.90
25937;DHT22;13733;51.178;4.450;2022-12-29T06:29:50;11.10;99.90
25937;DHT22;13733;51.178;4.450;2022-12-29T06:32:15;11.20;99.90
25937;DHT22;13733;51.178;4.450;2022-12-29T06:34:46;11.30;99.90
25937;DHT22;13733;51.178;4.450;2022-12-29T06:37:12;11.20;99.90
25937;DHT22;13733;51.178;4.450;2022-12-29T06:39:38;11.20;99.90
25937;DHT22;13733;51.178;4.450;2022-12-29T06:42:10;11.30;99.90
25937;DHT22;13733;51.178;4.450;2022-12-29T06:44:44;11.30;99.90
25937;DHT22;13733;51.178;4.450;2022-12-29T06:47:10;11.20;99.90
25937;DHT22;13733;51.178;4.450;2022-12-29T06:49:36;11.10;99.90
25937;DHT22;13733;51.178;4.450;2022-12-29T06:52:02;11.20;99.90
25937;DHT22;13733;51.178;4.450;2022-12-29T06:54:30;11.20;99.90
25937;DHT22;13733;51.178;4.450;2022-12-29T06:56:56;11.20;99.90
25937;DHT22;13733;51.178;4.450;2022-12-29T06:59:22;11.30;99.90
25937;DHT22;13733;51.178;4.450;2022-12-29T07:01:47;11.20;99.90
25937;DHT22;13733;51.178;4.450;2022-12-29T07:04:13;11.20;99.90
25937;DHT22;13733;51.178;4.450;2022-12-29T07:06:39;11.20;99.90
25937;DHT22;13733;51.178;4.450;2022-12-29T07:09:06;11.30;99.90
25937;DHT22;13733;51.178;4.450;2022-12-29T07:11:33;11.40;99.90
25937;DHT22;13733;51.178;4.450;2022-12-29T07:13:58;11.30;99.90
25937;DHT22;13733;51.178;4.450;2022-12-29T07:16:24;11.40;99.90
25937;DHT22;13733;51.178;4.450;2022-12-29T07:18:50;11.30;99.90
25937;DHT22;13733;51.178;4.450;2022-12-29T07:21:17;11.30;99.90
25937;DHT22;13733;51.178;4.450;2022-12-29T07:23:43;11.20;99.90
25937;DHT22;13733;51.178;4.450;2022-12-29T07:26:12;11.20;99.90
25937;DHT22;13733;51.178;4.450;2022-12-29T07:28:38;11.10;99.90
25937;DHT22;13733;51.178;4.450;2022-12-29T07:31:04;11.20;99.90
25937;DHT22;13733;51.178;4.450;2022-12-29T07:33:31;11.30;99.90
25937;DHT22;13733;51.178;4.450;2022-12-29T07:35:57;11.30;99.90
25937;DHT22;13733;51.178;4.450;2022-12-29T07:38:23;11.30;99.90
25937;DHT22;13733;51.178;4.450;2022-12-29T07:40:49;11.40;99.90
25937;DHT22;13733;51.178;4.450;2022-12-29T07:43:15;11.40;99.90
25937;DHT22;13733;51.178;4.450;2022-12-29T07:45:52;11.30;99.90
25937;DHT22;13733;51.178;4.450;2022-12-29T07:48:21;11.30;99.90
25937;DHT22;13733;51.178;4.450;2022-12-29T07:50:47;11.40;99.90
25937;DHT22;13733;51.178;4.450;2022-12-29T07:53:13;11.50;99.90
25937;DHT22;13733;51.178;4.450;2022-12-29T07:55:40;11.60;99.90
25937;DHT22;13733;51.178;4.450;2022-12-29T07:58:06;11.40;99.90
25937;DHT22;13733;51.178;4.450;2022-12-29T08:00:31;11.40;99.90
25937;DHT22;13733;51.178;4.450;2022-12-29T08:02:58;11.50;99.90
25937;DHT22;13733;51.178;4.450;2022-12-29T08:05:23;11.50;99.90
25937;DHT22;13733;51.178;4.450;2022-12-29T08:07:49;11.40;99.90
25937;DHT22;13733;51.178;4.450;2022-12-29T08:10:15;11.40;99.90
25937;DHT22;13733;51.178;4.450;2022-12-29T08:12:42;11.40;99.90
25937;DHT22;13733;51.178;4.450;2022-12-29T08:15:10;11.40;99.90
25937;DHT22;13733;51.178;4.450;2022-12-29T08:17:36;11.40;99.90
25937;DHT22;13733;51.178;4.450;2022-12-29T08:20:03;11.40;99.90
25937;DHT22;13733;51.178;4.450;2022-12-29T08:22:29;11.50;99.90
25937;DHT22;13733;51.178;4.450;2022-12-29T08:24:55;11.40;99.90
25937;DHT22;13733;51.178;4.450;2022-12-29T08:27:20;11.50;99.90
25937;DHT22;13733;51.178;4.450;2022-12-29T08:29:46;11.50;99.90
25937;DHT22;13733;51.178;4.450;2022-12-29T08:32:12;11.30;99.90
25937;DHT22;13733;51.178;4.450;2022-12-29T08:34:38;11.20;99.90
25937;DHT22;13733;51.178;4.450;2022-12-29T08:37:03;11.10;99.90
25937;DHT22;13733;51.178;4.450;2022-12-29T08:39:29;11.20;99.90
25937;DHT22;13733;51.178;4.450;2022-12-29T08:41:55;11.10;99.90
25937;DHT22;13733;51.178;4.450;2022-12-29T08:44:21;11.00;99.90
25937;DHT22;13733;51.178;4.450;2022-12-29T08:46:47;10.80;99.90
25937;DHT22;13733;51.178;4.450;2022-12-29T08:49:12;10.70;99.90
25937;DHT22;13733;51.178;4.450;2022-12-29T08:51:38;10.70;99.90
25937;DHT22;13733;51.178;4.450;2022-12-29T08:54:04;10.70;99.90
25937;DHT22;13733;51.178;4.450;2022-12-29T08:56:32;10.70;99.90
25937;DHT22;13733;51.178;4.450;2022-12-29T08:58:59;10.50;99.90
25937;DHT22;13733;51.178;4.450;2022-12-29T09:01:27;10.30;99.90
25937;DHT22;13733;51.178;4.450;2022-12-29T09:03:53;10.30;99.90
25937;DHT22;13733;51.178;4.450;2022-12-29T09:06:20;10.30;99.90
25937;DHT22;13733;51.178;4.450;2022-12-29T09:08:45;10.20;99.90
25937;DHT22;13733;51.178;4.450;2022-12-29T09:11:17;10.20;99.90
25937;DHT22;13733;51.178;4.450;2022-12-29T09:13:45;10.20;99.90
25937;DHT22;13733;51.178;4.450;2022-12-29T09:16:11;10.20;99.90
25937;DHT22;13733;51.178;4.450;2022-12-29T09:18:38;10.30;99.90
25937;DHT22;13733;51.178;4.450;2022-12-29T09:21:06;10.30;99.90
25937;DHT22;13733;51.178;4.450;2022-12-29T09:23:32;10.40;99.90
25937;DHT22;13733;51.178;4.450;2022-12-29T09:25:58;10.30;99.90
25937;DHT22;13733;51.178;4.450;2022-12-29T09:28:24;10.10;99.90
25937;DHT22;13733;51.178;4.450;2022-12-29T09:30:50;10.00;99.90
25937;DHT22;13733;51.178;4.450;2022-12-29T09:33:16;10.00;99.90
25937;DHT22;13733;51.178;4.450;2022-12-29T09:35:43;10.00;99.90
25937;DHT22;13733;51.178;4.450;2022-12-29T09:38:10;10.00;99.90
25937;DHT22;13733;51.178;4.450;2022-12-29T09:40:36;10.10;99.90
25937;DHT22;13733;51.178;4.450;2022-12-29T09:48:21;10.20;99.90
25937;DHT22;13733;51.178;4.450;2022-12-29T09:51:01;10.20;99.90
25937;DHT22;13733;51.178;4.450;2022-12-29T09:53:45;10.20;99.90
25937;DHT22;13733;51.178;4.450;2022-12-29T09:56:16;10.30;99.90
25937;DHT22;13733;51.178;4.450;2022-12-29T10:03:50;10.30;99.90
25937;DHT22;13733;51.178;4.450;2022-12-29T10:09:20;10.20;99.90
25937;DHT22;13733;51.178;4.450;2022-12-29T10:15:09;10.20;99.90
25937;DHT22;13733;51.178;4.450;2022-12-29T10:20:33;10.30;99.90
25937;DHT22;13733;51.178;4.450;2022-12-29T10:23:24;10.30;99.90
25937;DHT22;13733;51.178;4.450;2022-12-29T10:25:55;10.20;99.90
25937;DHT22;13733;51.178;4.450;2022-12-29T10:28:34;10.20;99.90
25937;DHT22;13733;51.178;4.450;2022-12-29T10:31:04;10.20;99.90
25937;DHT22;13733;51.178;4.450;2022-12-29T10:33:42;10.10;99.90
25937;DHT22;13733;51.178;4.450;2022-12-29T10:36:38;10.00;99.90
25937;DHT22;13733;51.178;4.450;2022-12-29T10:39:28;10.20;99.90
25937;DHT22;13733;51.178;4.450;2022-12-29T10:42:09;10.20;99.90
25937;DHT22;13733;51.178;4.450;2022-12-29T10:44:36;10.30;99.90
25937;DHT22;13733;51.178;4.450;2022-12-29T10:47:05;10.20;99.90
25937;DHT22;13733;51.178;4.450;2022-12-29T10:49:39;10.30;99.90
25937;DHT22;13733;51.178;4.450;2022-12-29T10:52:06;10.40;99.90
25937;DHT22;13733;51.178;4.450;2022-12-29T10:54:52;10.40;99.90
25937;DHT22;13733;51.178;4.450;2022-12-29T10:57:41;10.30;99.90
25937;DHT22;13733;51.178;4.450;2022-12-29T11:00:15;10.50;99.90
25937;DHT22;13733;51.178;4.450;2022-12-29T11:02:59;10.60;99.90
25937;DHT22;13733;51.178;4.450;2022-12-29T11:08:08;10.90;99.90
25937;DHT22;13733;51.178;4.450;2022-12-29T11:10:41;11.20;99.90
25937;DHT22;13733;51.178;4.450;2022-12-29T11:13:19;11.40;99.90
25937;DHT22;13733;51.178;4.450;2022-12-29T11:15:51;11.30;99.90
25937;DHT22;13733;51.178;4.450;2022-12-29T11:20:47;11.20;99.90
25937;DHT22;13733;51.178;4.450;2022-12-29T11:23:30;11.20;99.90
25937;DHT22;13733;51.178;4.450;2022-12-29T11:26:07;11.30;99.90
25937;DHT22;13733;51.178;4.450;2022-12-29T11:28:38;11.40;99.90
25937;DHT22;13733;51.178;4.450;2022-12-29T11:31:06;11.50;99.90
25937;DHT22;13733;51.178;4.450;2022-12-29T11:33:37;11.50;99.90
25937;DHT22;13733;51.178;4.450;2022-12-29T11:36:21;11.40;99.90
25937;DHT22;13733;51.178;4.450;2022-12-29T11:38:53;11.70;99.90
25937;DHT22;13733;51.178;4.450;2022-12-29T11:41:26;11.80;99.90
25937;DHT22;13733;51.178;4.450;2022-12-29T11:43:55;11.70;99.90
25937;DHT22;13733;51.178;4.450;2022-12-29T11:46:25;11.70;99.90
25937;DHT22;13733;51.178;4.450;2022-12-29T11:48:52;11.80;99.90
25937;DHT22;13733;51.178;4.450;2022-12-29T11:51:28;11.80;99.90
25937;DHT22;13733;51.178;4.450;2022-12-29T11:54:00;11.80;99.90
25937;DHT22;13733;51.178;4.450;2022-12-29T12:01:51;11.60;99.90
25937;DHT22;13733;51.178;4.450;2022-12-29T12:04:18;11.50;99.90
25937;DHT22;13733;51.178;4.450;2022-12-29T12:07:04;11.50;99.90
25937;DHT22;13733;51.178;4.450;2022-12-29T12:09:51;11.50;99.90
25937;DHT22;13733;51.178;4.450;2022-12-29T12:12:24;11.50;99.90
25937;DHT22;13733;51.178;4.450;2022-12-29T12:14:55;11.50;99.90
25937;DHT22;13733;51.178;4.450;2022-12-29T12:17:52;11.50;99.90
25937;DHT22;13733;51.178;4.450;2022-12-29T12:26:24;11.50;99.90
25937;DHT22;13733;51.178;4.450;2022-12-29T12:28:53;11.30;99.90
25937;DHT22;13733;51.178;4.450;2022-12-29T12:31:41;11.30;99.90
25937;DHT22;13733;51.178;4.450;2022-12-29T12:34:16;10.90;99.90
25937;DHT22;13733;51.178;4.450;2022-12-29T12:39:45;10.70;99.90
25937;DHT22;13733;51.178;4.450;2022-12-29T12:42:20;10.50;99.90
25937;DHT22;13733;51.178;4.450;2022-12-29T12:50:42;10.20;99.90
25937;DHT22;13733;51.178;4.450;2022-12-29T12:54:22;10.10;99.90
25937;DHT22;13733;51.178;4.450;2022-12-29T13:01:52;10.10;99.90
25937;DHT22;13733;51.178;4.450;2022-12-29T13:07:04;10.00;99.90
25937;DHT22;13733;51.178;4.450;2022-12-29T13:09:48;10.00;99.90
25937;DHT22;13733;51.178;4.450;2022-12-29T13:15:50;10.10;99.90
25937;DHT22;13733;51.178;4.450;2022-12-29T13:18:33;10.30;99.90
25937;DHT22;13733;51.178;4.450;2022-12-29T13:21:07;10.40;99.90
25937;DHT22;13733;51.178;4.450;2022-12-29T13:23:44;10.60;99.90
25937;DHT22;13733;51.178;4.450;2022-12-29T13:26:16;10.60;99.90
25937;DHT22;13733;51.178;4.450;2022-12-29T13:28:56;10.40;99.90
25937;DHT22;13733;51.178;4.450;2022-12-29T13:34:24;10.40;99.90
25937;DHT22;13733;51.178;4.450;2022-12-29T13:37:00;10.30;99.90
25937;DHT22;13733;51.178;4.450;2022-12-29T13:39:43;10.20;99.90
25937;DHT22;13733;51.178;4.450;2022-12-29T13:42:11;10.20;99.90
25937;DHT22;13733;51.178;4.450;2022-12-29T13:45:04;10.20;99.90
25937;DHT22;13733;51.178;4.450;2022-12-29T13:47:37;10.00;99.90
25937;DHT22;13733;51.178;4.450;2022-12-29T13:50:16;10.00;99.90
25937;DHT22;13733;51.178;4.450;2022-12-29T13:55:36;10.00;99.90
25937;DHT22;13733;51.178;4.450;2022-12-29T14:06:27;9.90;99.90
25937;DHT22;13733;51.178;4.450;2022-12-29T14:08:58;9.90;99.90
25937;DHT22;13733;51.178;4.450;2022-12-29T14:11:34;9.90;99.90
25937;DHT22;13733;51.178;4.450;2022-12-29T14:16:49;9.90;99.90
25937;DHT22;13733;51.178;4.450;2022-12-29T14:21:53;9.90;99.90
25937;DHT22;13733;51.178;4.450;2022-12-29T14:34:48;9.80;99.90
25937;DHT22;13733;51.178;4.450;2022-12-29T14:40:06;9.80;99.90
25937;DHT22;13733;51.178;4.450;2022-12-29T14:42:40;9.90;99.90
25937;DHT22;13733;51.178;4.450;2022-12-29T14:47:43;9.80;99.90
25937;DHT22;13733;51.178;4.450;2022-12-29T14:50:14;9.90;99.90
25937;DHT22;13733;51.178;4.450;2022-12-29T14:52:56;9.90;99.90
25937;DHT22;13733;51.178;4.450;2022-12-29T14:58:20;9.70;99.90
25937;DHT22;13733;51.178;4.450;2022-12-29T15:00:47;9.90;99.90
25937;DHT22;13733;51.178;4.450;2022-12-29T15:05:56;9.90;99.90
25937;DHT22;13733;51.178;4.450;2022-12-29T15:08:29;9.80;99.90
25937;DHT22;13733;51.178;4.450;2022-12-29T15:11:12;9.80;99.90
25937;DHT22;13733;51.178;4.450;2022-12-29T15:13:41;9.80;99.90
25937;DHT22;13733;51.178;4.450;2022-12-29T15:18:51;9.60;99.90
25937;DHT22;13733;51.178;4.450;2022-12-29T15:21:17;9.50;99.90
25937;DHT22;13733;51.178;4.450;2022-12-29T15:23:47;9.60;99.90
25937;DHT22;13733;51.178;4.450;2022-12-29T15:26:13;9.60;99.90
25937;DHT22;13733;51.178;4.450;2022-12-29T15:28:47;9.50;99.90
25937;DHT22;13733;51.178;4.450;2022-12-29T15:31:21;9.40;99.90
25937;DHT22;13733;51.178;4.450;2022-12-29T15:33:51;9.30;99.90
25937;DHT22;13733;51.178;4.450;2022-12-29T15:36:21;9.10;99.90
25937;DHT22;13733;51.178;4.450;2022-12-29T15:38:47;9.20;99.90
25937;DHT22;13733;51.178;4.450;2022-12-29T15:44:04;9.30;99.90
25937;DHT22;13733;51.178;4.450;2022-12-29T15:46:32;9.40;99.90
25937;DHT22;13733;51.178;4.450;2022-12-29T15:48:59;9.40;99.90
25937;DHT22;13733;51.178;4.450;2022-12-29T15:51:35;9.50;99.90
25937;DHT22;13733;51.178;4.450;2022-12-29T15:54:02;9.40;99.90
25937;DHT22;13733;51.178;4.450;2022-12-29T15:56:29;9.40;99.90
25937;DHT22;13733;51.178;4.450;2022-12-29T15:58:57;9.50;99.90
25937;DHT22;13733;51.178;4.450;2022-12-29T16:01:24;9.50;99.90
25937;DHT22;13733;51.178;4.450;2022-12-29T16:03:51;9.50;99.90
25937;DHT22;13733;51.178;4.450;2022-12-29T16:06:27;9.40;99.90
25937;DHT22;13733;51.178;4.450;2022-12-29T16:09:06;9.40;99.90
25937;DHT22;13733;51.178;4.450;2022-12-29T16:11:40;9.40;99.90
25937;DHT22;13733;51.178;4.450;2022-12-29T16:14:17;9.30;99.90
25937;DHT22;13733;51.178;4.450;2022-12-29T16:16:44;9.20;99.90
25937;DHT22;13733;51.178;4.450;2022-12-29T16:21:37;9.40;99.90
25937;DHT22;13733;51.178;4.450;2022-12-29T16:24:12;9.30;99.90
25937;DHT22;13733;51.178;4.450;2022-12-29T16:26:39;9.20;99.90
25937;DHT22;13733;51.178;4.450;2022-12-29T16:29:12;9.30;99.90
25937;DHT22;13733;51.178;4.450;2022-12-29T16:31:59;9.30;99.90
25937;DHT22;13733;51.178;4.450;2022-12-29T16:37:32;9.30;99.90
25937;DHT22;13733;51.178;4.450;2022-12-29T16:50:43;9.00;99.90
25937;DHT22;13733;51.178;4.450;2022-12-29T16:53:37;8.90;99.90
25937;DHT22;13733;51.178;4.450;2022-12-29T16:56:12;9.00;99.90
25937;DHT22;13733;51.178;4.450;2022-12-29T16:58:39;8.90;99.90
25937;DHT22;13733;51.178;4.450;2022-12-29T17:01:06;8.80;99.90
25937;DHT22;13733;51.178;4.450;2022-12-29T17:03:42;8.80;99.90
25937;DHT22;13733;51.178;4.450;2022-12-29T17:06:15;8.70;99.90
25937;DHT22;13733;51.178;4.450;2022-12-29T17:08:42;8.70;99.90
25937;DHT22;13733;51.178;4.450;2022-12-29T17:11:23;8.70;99.90
25937;DHT22;13733;51.178;4.450;2022-12-29T17:16:54;8.70;99.90
25937;DHT22;13733;51.178;4.450;2022-12-29T17:19:26;8.60;99.90
25937;DHT22;13733;51.178;4.450;2022-12-29T17:21:53;8.70;99.90
25937;DHT22;13733;51.178;4.450;2022-12-29T17:24:19;8.70;99.90
25937;DHT22;13733;51.178;4.450;2022-12-29T17:26:49;8.70;99.90
25937;DHT22;13733;51.178;4.450;2022-12-29T17:29:34;8.80;99.90
25937;DHT22;13733;51.178;4.450;2022-12-29T17:32:02;8.80;99.90
25937;DHT22;13733;51.178;4.450;2022-12-29T17:34:29;8.90;99.90
25937;DHT22;13733;51.178;4.450;2022-12-29T17:36:54;8.90;99.90
25937;DHT22;13733;51.178;4.450;2022-12-29T17:39:20;8.90;99.90
25937;DHT22;13733;51.178;4.450;2022-12-29T17:41:46;8.70;99.90
25937;DHT22;13733;51.178;4.450;2022-12-29T17:44:17;8.70;99.90
25937;DHT22;13733;51.178;4.450;2022-12-29T17:46:44;8.60;99.90
25937;DHT22;13733;51.178;4.450;2022-12-29T17:49:15;8.50;99.90
25937;DHT22;13733;51.178;4.450;2022-12-29T17:51:42;8.50;99.90
25937;DHT22;13733;51.178;4.450;2022-12-29T17:54:20;8.50;99.90
25937;DHT22;13733;51.178;4.450;2022-12-29T17:56:47;8.50;99.90
25937;DHT22;13733;51.178;4.450;2022-12-29T17:59:13;8.60;99.90
25937;DHT22;13733;51.178;4.450;2022-12-29T18:01:43;8.70;99.90
25937;DHT22;13733;51.178;4.450;2022-12-29T18:04:17;8.50;99.90
25937;DHT22;13733;51.178;4.450;2022-12-29T18:06:44;8.50;99.90
25937;DHT22;13733;51.178;4.450;2022-12-29T18:09:11;8.60;99.90
25937;DHT22;13733;51.178;4.450;2022-12-29T18:11:41;8.60;99.90
25937;DHT22;13733;51.178;4.450;2022-12-29T18:14:14;8.60;99.90
25937;DHT22;13733;51.178;4.450;2022-12-29T18:16:40;8.60;99.90
25937;DHT22;13733;51.178;4.450;2022-12-29T18:19:06;8.60;99.90
25937;DHT22;13733;51.178;4.450;2022-12-29T18:21:33;8.80;99.90
25937;DHT22;13733;51.178;4.450;2022-12-29T18:24:00;8.90;99.90
25937;DHT22;13733;51.178;4.450;2022-12-29T18:26:27;8.80;99.90
25937;DHT22;13733;51.178;4.450;2022-12-29T18:28:56;8.70;99.90
25937;DHT22;13733;51.178;4.450;2022-12-29T18:31:24;8.70;99.90
25937;DHT22;13733;51.178;4.450;2022-12-29T18:33:50;8.70;99.90
25937;DHT22;13733;51.178;4.450;2022-12-29T18:36:18;8.80;99.90
25937;DHT22;13733;51.178;4.450;2022-12-29T18:38:44;8.90;99.90